createdAt,value
2017-12-05T00:00:04.720Z,8.90
2017-12-05T00:01:07.175Z,12.30
2017-12-05T00:02:09.780Z,9.93
2017-12-05T00:03:12.298Z,8.43
2017-12-05T00:04:14.935Z,16.67
2017-12-05T00:05:17.451Z,9.02
2017-12-05T00:06:19.876Z,15.05
2017-12-05T00:07:22.403Z,7.07
2017-12-05T00:08:24.875Z,13.93
2017-12-05T00:09:27.375Z,14.50
2017-12-05T00:10:30.199Z,22.55
2017-12-05T00:11:32.682Z,16.40
2017-12-05T00:12:35.926Z,14.52
2017-12-05T00:13:39.263Z,11.73
2017-12-05T00:14:41.785Z,12.45
2017-12-05T00:15:44.240Z,11.30
2017-12-05T00:16:46.693Z,16.83
2017-12-05T00:17:49.181Z,14.48
2017-12-05T00:18:52.431Z,13.70
2017-12-05T00:19:55.684Z,17.83
2017-12-05T00:20:58.986Z,6.65
2017-12-05T00:22:01.468Z,18.05
2017-12-05T00:23:03.954Z,17.55
2017-12-05T00:24:07.244Z,9.13
2017-12-05T00:25:11.220Z,17.02
2017-12-05T00:26:13.841Z,11.77
2017-12-05T00:27:16.406Z,9.48
2017-12-05T00:28:19.773Z,17.90
2017-12-05T00:29:22.262Z,23.87
2017-12-05T00:30:24.718Z,10.57
2017-12-05T00:31:27.903Z,11.38
2017-12-05T00:32:30.391Z,12.65
2017-12-05T00:33:32.917Z,15.23
2017-12-05T00:34:35.426Z,13.68
2017-12-05T00:35:38.659Z,20.70
2017-12-05T00:36:41.939Z,21.75
2017-12-05T00:37:44.432Z,10.13
2017-12-05T00:38:47.664Z,18.27
2017-12-05T00:39:50.164Z,14.98
2017-12-05T00:40:52.622Z,11.15
2017-12-05T00:41:55.848Z,11.88
2017-12-05T00:42:58.339Z,12.77
2017-12-05T00:44:00.803Z,6.53
2017-12-05T00:45:03.274Z,11.20
2017-12-05T00:46:05.747Z,15.52
2017-12-05T00:47:09.029Z,17.67
2017-12-05T00:48:11.524Z,14.50
2017-12-05T00:49:14.771Z,13.73
2017-12-05T00:50:18.004Z,19.17
2017-12-05T00:51:20.623Z,10.13
2017-12-05T00:52:23.156Z,19.55
2017-12-05T00:53:25.610Z,12.70
2017-12-05T00:54:28.099Z,6.65
2017-12-05T00:55:30.582Z,13.40
2017-12-05T00:56:33.038Z,13.57
2017-12-05T00:57:35.520Z,14.82
2017-12-05T00:58:38.035Z,13.88
2017-12-05T00:59:40.564Z,16.17
2017-12-05T01:00:43.306Z,9.65
2017-12-05T01:01:45.787Z,12.98
2017-12-05T01:02:48.342Z,12.45
2017-12-05T01:03:50.820Z,13.15
2017-12-05T01:04:53.403Z,14.32
2017-12-05T01:05:55.952Z,9.23
2017-12-05T01:06:58.418Z,14.63
2017-12-05T01:08:01.976Z,17.92
2017-12-05T01:09:05.608Z,16.37
2017-12-05T01:10:08.074Z,14.07
2017-12-05T01:11:10.618Z,20.58
2017-12-05T01:12:17.813Z,12.50
2017-12-05T01:13:22.318Z,16.25
2017-12-05T01:14:24.850Z,10.48
2017-12-05T01:15:27.322Z,15.88
2017-12-05T01:16:29.813Z,17.02
2017-12-05T01:17:32.896Z,9.90
2017-12-05T01:18:36.136Z,5.78
2017-12-05T01:19:39.386Z,16.35
2017-12-05T01:20:42.660Z,9.55
2017-12-05T01:21:45.174Z,18.27
2017-12-05T01:22:47.659Z,21.10
2017-12-05T01:23:50.924Z,11.38
2017-12-05T01:24:54.143Z,8.80
2017-12-05T01:25:56.638Z,14.10
2017-12-05T01:26:59.102Z,13.65
2017-12-05T01:28:01.699Z,18.52
2017-12-05T01:29:04.191Z,15.60
2017-12-05T01:30:06.666Z,13.60
2017-12-05T01:31:09.116Z,11.80
2017-12-05T01:32:12.382Z,12.32
2017-12-05T01:33:14.907Z,9.35
2017-12-05T01:34:17.397Z,14.05
2017-12-05T01:35:19.882Z,13.13
2017-12-05T01:36:22.375Z,12.50
2017-12-05T01:37:24.833Z,14.70
2017-12-05T01:38:27.391Z,17.92
2017-12-05T01:39:29.928Z,10.13
2017-12-05T01:40:32.438Z,16.45
2017-12-05T01:41:34.900Z,11.32
2017-12-05T01:42:38.136Z,13.57
2017-12-05T01:43:41.355Z,14.32
2017-12-05T01:44:44.630Z,7.65
2017-12-05T01:45:47.856Z,14.60
2017-12-05T01:46:50.300Z,17.27
2017-12-05T01:47:52.751Z,8.85
2017-12-05T01:48:55.256Z,17.50
2017-12-05T01:49:57.777Z,14.82
2017-12-05T01:51:01.012Z,21.33
2017-12-05T01:52:03.474Z,12.52
2017-12-05T01:53:05.939Z,15.13
2017-12-05T01:54:08.406Z,10.18
2017-12-05T01:55:10.982Z,10.90
2017-12-05T01:56:13.588Z,9.50
2017-12-05T01:57:16.466Z,13.52
2017-12-05T01:58:19.742Z,12.95
2017-12-05T01:59:22.204Z,14.85
2017-12-05T02:00:25.087Z,14.82
2017-12-05T02:01:27.585Z,14.20
2017-12-05T02:02:30.874Z,16.02
2017-12-05T02:03:33.422Z,11.80
2017-12-05T02:04:35.879Z,9.48
2017-12-05T02:05:39.110Z,6.60
2017-12-05T02:06:41.617Z,17.73
2017-12-05T02:07:44.088Z,14.13
2017-12-05T02:08:46.627Z,8.80
2017-12-05T02:09:49.106Z,12.40
2017-12-05T02:10:51.595Z,16.00
2017-12-05T02:11:54.084Z,14.52
2017-12-05T02:12:57.324Z,23.38
2017-12-05T02:14:00.566Z,15.70
2017-12-05T02:15:03.827Z,18.80
2017-12-05T02:16:06.287Z,13.80
2017-12-05T02:17:08.765Z,11.00
2017-12-05T02:18:12.005Z,7.97
2017-12-05T02:19:14.492Z,16.33
2017-12-05T02:20:16.996Z,20.40
2017-12-05T02:21:19.494Z,14.80
2017-12-05T02:22:21.975Z,9.35
2017-12-05T02:23:25.072Z,21.50
2017-12-05T02:24:27.543Z,14.48
2017-12-05T02:25:30.029Z,17.48
2017-12-05T02:26:32.494Z,16.65
2017-12-05T02:27:35.032Z,14.00
2017-12-05T02:28:38.258Z,14.73
2017-12-05T02:29:40.990Z,14.85
2017-12-05T02:30:44.966Z,18.00
2017-12-05T02:31:48.193Z,14.57
2017-12-05T02:32:50.659Z,16.05
2017-12-05T02:33:53.131Z,13.68
2017-12-05T02:34:55.607Z,15.38
2017-12-05T02:35:58.131Z,16.73
2017-12-05T02:37:01.311Z,15.98
2017-12-05T02:38:03.801Z,20.27
2017-12-05T02:39:06.268Z,10.32
2017-12-05T02:40:08.731Z,11.25
2017-12-05T02:41:11.992Z,12.93
2017-12-05T02:42:14.470Z,11.85
2017-12-05T02:43:17.040Z,12.30
2017-12-05T02:44:19.499Z,12.20
2017-12-05T02:45:21.966Z,17.83
2017-12-05T02:46:25.246Z,15.07
2017-12-05T02:47:27.711Z,15.02
2017-12-05T02:48:31.001Z,24.45
2017-12-05T02:49:33.464Z,12.88
2017-12-05T02:50:35.941Z,17.60
2017-12-05T02:51:39.193Z,15.25
2017-12-05T02:52:41.728Z,17.15
2017-12-05T02:53:44.194Z,14.50
2017-12-05T02:54:46.661Z,16.75
2017-12-05T02:55:49.139Z,17.55
2017-12-05T02:56:51.640Z,21.23
2017-12-05T02:57:54.117Z,17.23
2017-12-05T02:58:57.362Z,13.98
2017-12-05T03:00:00.572Z,17.25
2017-12-05T03:01:03.167Z,17.05
2017-12-05T03:02:05.739Z,15.10
2017-12-05T03:03:08.220Z,10.85
2017-12-05T03:04:10.704Z,22.83
2017-12-05T03:05:13.995Z,13.77
2017-12-05T03:06:16.475Z,24.95
2017-12-05T03:07:19.703Z,14.77
2017-12-05T03:08:22.192Z,16.62
2017-12-05T03:09:24.658Z,18.55
2017-12-05T03:10:27.217Z,18.48
2017-12-05T03:11:29.738Z,13.57
2017-12-05T03:12:32.222Z,18.27
2017-12-05T03:13:34.736Z,13.75
2017-12-05T03:14:37.258Z,17.27
2017-12-05T03:15:39.711Z,13.98
2017-12-05T03:16:42.953Z,14.90
2017-12-05T03:17:45.414Z,14.87
2017-12-05T03:18:47.906Z,21.25
2017-12-05T03:19:51.245Z,14.43
2017-12-05T03:20:54.462Z,12.80
2017-12-05T03:21:56.942Z,16.12
2017-12-05T03:22:59.409Z,12.37
2017-12-05T03:24:01.916Z,16.37
2017-12-05T03:25:04.417Z,12.30
2017-12-05T03:26:06.870Z,12.90
2017-12-05T03:27:09.364Z,18.37
2017-12-05T03:28:11.851Z,12.37
2017-12-05T03:29:14.304Z,12.77
2017-12-05T03:30:17.625Z,12.23
2017-12-05T03:31:20.039Z,11.20
2017-12-05T03:32:22.612Z,19.87
2017-12-05T03:33:25.078Z,12.45
2017-12-05T03:34:27.599Z,17.67
2017-12-05T03:35:30.080Z,13.40
2017-12-05T03:36:32.603Z,13.50
2017-12-05T03:37:35.712Z,11.43
2017-12-05T03:38:38.174Z,11.93
2017-12-05T03:39:41.392Z,13.20
2017-12-05T03:40:44.720Z,11.70
2017-12-05T03:41:47.262Z,13.30
2017-12-05T03:42:50.571Z,13.77
2017-12-05T03:43:53.025Z,10.43
2017-12-05T03:44:55.503Z,13.90
2017-12-05T03:45:57.986Z,13.00
2017-12-05T03:47:01.198Z,13.25
2017-12-05T03:48:03.669Z,11.88
2017-12-05T03:49:06.206Z,10.88
2017-12-05T03:50:08.694Z,11.05
2017-12-05T03:51:12.012Z,12.43
2017-12-05T03:52:14.491Z,13.23
2017-12-05T03:53:16.950Z,12.20
2017-12-05T03:54:19.444Z,16.23
2017-12-05T03:55:21.983Z,11.52
2017-12-05T03:56:24.454Z,13.00
2017-12-05T03:57:27.006Z,12.63
2017-12-05T03:58:30.295Z,10.80
2017-12-05T03:59:32.760Z,13.73
2017-12-05T04:00:35.987Z,9.52
2017-12-05T04:01:38.447Z,15.52
2017-12-05T04:02:40.908Z,11.90
2017-12-05T04:03:43.401Z,11.70
2017-12-05T04:04:45.878Z,11.70
2017-12-05T04:05:48.334Z,11.93
2017-12-05T04:08:00.465Z,16.52
2017-12-05T04:09:03.033Z,12.02
2017-12-05T04:10:05.528Z,12.85
2017-12-05T04:11:08.095Z,14.43
2017-12-05T04:12:10.565Z,10.20
2017-12-05T04:13:13.039Z,13.27
2017-12-05T04:14:15.518Z,14.95
2017-12-05T04:15:17.965Z,11.05
2017-12-05T04:16:20.481Z,14.60
2017-12-05T04:17:22.986Z,14.05
2017-12-05T04:18:26.250Z,12.60
2017-12-05T04:19:28.732Z,13.57
2017-12-05T04:20:31.980Z,12.60
2017-12-05T04:21:35.350Z,14.45
2017-12-05T04:22:37.886Z,14.00
2017-12-05T04:23:40.362Z,12.98
2017-12-05T04:24:42.844Z,13.82
2017-12-05T04:25:45.317Z,13.88
2017-12-05T04:26:47.786Z,13.57
2017-12-05T04:27:50.252Z,15.10
2017-12-05T04:28:52.748Z,13.82
2017-12-05T04:29:55.555Z,14.55
2017-12-05T04:30:58.035Z,13.02
2017-12-05T04:32:00.656Z,17.00
2017-12-05T04:33:03.128Z,18.58
2017-12-05T04:34:06.674Z,19.40
2017-12-05T04:35:09.957Z,15.23
2017-12-05T04:36:12.409Z,17.52
2017-12-05T04:37:14.887Z,14.65
2017-12-05T04:38:17.331Z,14.95
2017-12-05T04:39:19.981Z,15.27
2017-12-05T04:40:22.519Z,17.60
2017-12-05T04:41:26.480Z,17.45
2017-12-05T04:42:29.073Z,19.80
2017-12-05T04:43:31.552Z,17.52
2017-12-05T04:44:34.793Z,18.25
2017-12-05T04:45:38.050Z,16.52
2017-12-05T04:46:40.515Z,16.85
2017-12-05T04:47:43.126Z,16.23
2017-12-05T04:48:45.601Z,13.88
2017-12-05T04:49:48.829Z,16.33
2017-12-05T04:50:51.303Z,12.75
2017-12-05T04:51:53.796Z,12.48
2017-12-05T04:52:57.053Z,13.27
2017-12-05T04:54:00.300Z,13.90
2017-12-05T04:55:02.794Z,11.07
2017-12-05T04:56:05.282Z,9.80
2017-12-05T04:57:07.761Z,11.48
2017-12-05T04:58:11.014Z,12.00
2017-12-05T04:59:14.263Z,12.35
2017-12-05T05:00:16.843Z,9.05
2017-12-05T05:01:19.423Z,12.07
2017-12-05T05:02:21.910Z,10.25
2017-12-05T05:03:25.191Z,11.60
2017-12-05T05:04:27.709Z,11.98
2017-12-05T05:05:30.954Z,11.35
2017-12-05T05:06:33.446Z,11.90
2017-12-05T05:07:35.918Z,13.18
2017-12-05T05:08:38.382Z,11.48
2017-12-05T05:09:40.850Z,12.05
2017-12-05T05:10:43.311Z,13.20
2017-12-05T05:11:45.799Z,12.90
2017-12-05T05:12:48.442Z,12.30
2017-12-05T05:13:50.966Z,14.60
2017-12-05T05:14:53.443Z,12.27
2017-12-05T05:15:55.935Z,11.23
2017-12-05T05:16:58.385Z,14.18
2017-12-05T05:18:00.898Z,12.30
2017-12-05T05:19:03.359Z,12.82
2017-12-05T05:20:06.586Z,14.40
2017-12-05T05:21:09.077Z,14.05
2017-12-05T05:22:11.526Z,11.32
2017-12-05T05:23:14.107Z,13.48
2017-12-05T05:24:16.579Z,13.65
2017-12-05T05:25:19.042Z,13.20
2017-12-05T05:26:21.517Z,14.80
2017-12-05T05:27:23.971Z,13.25
2017-12-05T05:28:27.223Z,14.68
2017-12-05T05:29:30.516Z,14.43
2017-12-05T05:30:32.982Z,16.12
2017-12-05T05:31:36.244Z,19.05
2017-12-05T05:32:38.729Z,16.90
2017-12-05T05:33:41.353Z,17.48
2017-12-05T05:34:43.820Z,18.92
2017-12-05T05:35:47.039Z,19.83
2017-12-05T05:36:49.526Z,18.90
2017-12-05T05:37:51.997Z,18.52
2017-12-05T05:38:55.226Z,20.58
2017-12-05T05:39:57.685Z,26.60
2017-12-05T05:41:00.191Z,27.37
2017-12-05T05:42:03.426Z,23.58
2017-12-05T05:43:06.705Z,27.85
2017-12-05T05:44:09.184Z,28.12
2017-12-05T05:45:11.750Z,28.60
2017-12-05T05:46:14.236Z,28.20
2017-12-05T05:47:16.714Z,30.48
2017-12-05T05:48:19.203Z,29.37
2017-12-05T05:49:22.434Z,31.23
2017-12-05T05:50:25.703Z,30.80
2017-12-05T05:51:28.972Z,30.75
2017-12-05T05:52:31.426Z,30.27
2017-12-05T05:53:33.944Z,31.55
2017-12-05T05:54:36.412Z,32.50
2017-12-05T05:55:39.642Z,29.27
2017-12-05T05:56:42.859Z,32.42
2017-12-05T05:57:45.331Z,29.95
2017-12-05T05:58:48.622Z,31.45
2017-12-05T05:59:51.086Z,32.03
2017-12-05T06:00:54.440Z,35.08
2017-12-05T06:01:56.945Z,33.45
2017-12-05T06:02:59.417Z,36.05
2017-12-05T06:04:01.923Z,32.53
2017-12-05T06:05:06.442Z,30.05
2017-12-05T06:06:08.890Z,30.95
2017-12-05T06:07:12.204Z,31.12
2017-12-05T06:08:14.681Z,30.73
2017-12-05T06:09:18.363Z,34.42
2017-12-05T06:10:20.912Z,26.48
2017-12-05T06:11:23.436Z,32.10
2017-12-05T06:12:25.919Z,26.87
2017-12-05T06:13:28.465Z,29.63
2017-12-05T06:14:30.917Z,25.70
2017-12-05T06:15:33.382Z,23.35
2017-12-05T06:16:36.611Z,33.47
2017-12-05T06:17:39.867Z,25.88
2017-12-05T06:18:43.136Z,28.77
2017-12-05T06:19:45.621Z,21.80
2017-12-05T06:20:48.886Z,24.00
2017-12-05T06:21:51.387Z,23.73
2017-12-05T06:22:54.650Z,21.62
2017-12-05T06:23:57.182Z,20.35
2017-12-05T06:24:59.703Z,28.15
2017-12-05T06:26:02.158Z,20.55
2017-12-05T06:27:04.635Z,24.23
2017-12-05T06:28:07.869Z,25.33
2017-12-05T06:29:10.419Z,21.35
2017-12-05T06:30:12.951Z,21.12
2017-12-05T06:31:15.457Z,19.42
2017-12-05T06:32:18.709Z,18.40
2017-12-05T06:33:21.965Z,21.60
2017-12-05T06:34:24.430Z,13.60
2017-12-05T06:35:27.007Z,18.67
2017-12-05T06:36:29.518Z,15.77
2017-12-05T06:37:32.758Z,16.50
2017-12-05T06:38:36.046Z,19.48
2017-12-05T06:39:38.509Z,15.25
2017-12-05T06:40:40.999Z,16.25
2017-12-05T06:41:43.462Z,13.75
2017-12-05T06:42:46.702Z,20.85
2017-12-05T06:43:49.284Z,17.00
2017-12-05T06:44:51.746Z,16.33
2017-12-05T06:45:54.229Z,17.95
2017-12-05T06:46:56.711Z,17.75
2017-12-05T06:47:59.175Z,20.08
2017-12-05T06:49:02.023Z,22.73
2017-12-05T06:50:05.428Z,17.73
2017-12-05T06:51:08.725Z,17.92
2017-12-05T06:52:11.212Z,17.48
2017-12-05T06:53:14.433Z,16.23
2017-12-05T06:54:17.672Z,17.52
2017-12-05T06:55:20.177Z,17.42
2017-12-05T06:56:22.666Z,17.30
2017-12-05T06:57:25.135Z,17.85
2017-12-05T06:58:27.597Z,22.40
2017-12-05T06:59:30.074Z,19.23
2017-12-05T07:00:33.520Z,20.25
2017-12-05T07:01:35.995Z,21.20
2017-12-05T07:02:38.480Z,19.23
2017-12-05T07:03:40.945Z,19.65
2017-12-05T07:04:43.433Z,20.30
2017-12-05T07:05:46.705Z,20.17
2017-12-05T07:06:49.175Z,17.95
2017-12-05T07:07:51.654Z,19.55
2017-12-05T07:08:54.902Z,24.33
2017-12-05T07:09:57.385Z,16.58
2017-12-05T07:10:59.894Z,18.35
2017-12-05T07:12:02.352Z,18.33
2017-12-05T07:13:05.570Z,16.90
2017-12-05T07:14:08.203Z,23.25
2017-12-05T07:15:10.770Z,15.73
2017-12-05T07:16:13.256Z,14.10
2017-12-05T07:17:16.192Z,16.48
2017-12-05T07:18:19.690Z,13.48
2017-12-05T07:19:22.162Z,20.65
2017-12-05T07:20:24.674Z,18.50
2017-12-05T07:21:27.140Z,13.45
2017-12-05T07:22:30.380Z,11.27
2017-12-05T07:23:32.979Z,14.55
2017-12-05T07:24:35.464Z,10.88
2017-12-05T07:25:37.959Z,19.12
2017-12-05T07:26:41.196Z,15.43
2017-12-05T07:27:43.683Z,23.02
2017-12-05T07:28:46.216Z,16.60
2017-12-05T07:29:48.700Z,12.75
2017-12-05T07:30:51.271Z,12.52
2017-12-05T07:31:53.796Z,12.70
2017-12-05T07:32:56.270Z,8.82
2017-12-05T07:33:58.802Z,11.23
2017-12-05T07:35:02.019Z,9.30
2017-12-05T07:36:04.501Z,12.23
2017-12-05T07:37:06.968Z,9.80
2017-12-05T07:38:09.451Z,10.30
2017-12-05T07:39:11.922Z,11.02
2017-12-05T07:40:15.189Z,13.77
2017-12-05T07:41:17.672Z,11.25
2017-12-05T07:42:20.134Z,10.60
2017-12-05T07:43:22.651Z,9.65
2017-12-05T07:44:25.887Z,11.57
2017-12-05T07:45:29.264Z,12.00
2017-12-05T07:46:32.012Z,12.57
2017-12-05T07:47:34.475Z,22.50
2017-12-05T07:48:37.067Z,14.85
2017-12-05T07:49:39.612Z,12.93
2017-12-05T07:50:42.101Z,13.68
2017-12-05T07:51:44.637Z,14.45
2017-12-05T07:52:47.168Z,14.38
2017-12-05T07:53:49.762Z,14.43
2017-12-05T07:54:52.234Z,10.10
2017-12-05T07:55:54.713Z,13.55
2017-12-05T07:56:57.179Z,17.27
2017-12-05T07:57:59.654Z,14.15
2017-12-05T07:59:02.167Z,11.77
2017-12-05T08:00:05.494Z,10.10
2017-12-05T08:01:07.953Z,15.25
2017-12-05T08:02:10.410Z,11.20
2017-12-05T08:03:12.883Z,12.77
2017-12-05T08:04:16.141Z,9.80
2017-12-05T08:05:18.685Z,9.43
2017-12-05T08:06:21.167Z,12.15
2017-12-05T08:07:23.637Z,9.90
2017-12-05T08:08:26.090Z,19.23
2017-12-05T08:09:28.605Z,11.85
2017-12-05T08:10:31.071Z,11.80
2017-12-05T08:11:33.519Z,9.48
2017-12-05T08:12:36.042Z,10.18
2017-12-05T08:13:38.516Z,9.07
2017-12-05T08:14:41.015Z,8.45
2017-12-05T08:15:43.492Z,8.40
2017-12-05T08:16:45.946Z,8.00
2017-12-05T08:17:48.422Z,7.65
2017-12-05T08:18:50.887Z,9.52
2017-12-05T08:19:54.136Z,9.27
2017-12-05T08:20:56.599Z,7.55
2017-12-05T08:21:59.086Z,8.77
2017-12-05T08:23:01.587Z,12.75
2017-12-05T08:24:04.826Z,9.27
2017-12-05T08:25:07.324Z,9.07
2017-12-05T08:26:09.808Z,8.35
2017-12-05T08:27:12.272Z,7.47
2017-12-05T08:28:14.726Z,8.40
2017-12-05T08:29:17.968Z,8.10
2017-12-05T08:30:21.962Z,4.87
2017-12-05T08:31:24.464Z,6.62
2017-12-05T08:32:27.686Z,6.55
2017-12-05T08:33:31.017Z,4.45
2017-12-05T08:34:33.495Z,5.35
2017-12-05T08:35:35.999Z,6.90
2017-12-05T08:36:39.273Z,3.90
2017-12-05T08:37:41.735Z,5.82
2017-12-05T08:38:44.330Z,4.60
2017-12-05T08:39:46.806Z,3.15
2017-12-05T08:40:49.314Z,3.80
2017-12-05T08:41:51.905Z,4.70
2017-12-05T08:42:54.372Z,5.60
2017-12-05T08:43:56.870Z,3.70
2017-12-05T08:44:59.368Z,5.55
2017-12-05T08:46:01.832Z,4.07
2017-12-05T08:47:04.360Z,5.50
2017-12-05T08:48:06.997Z,5.62
2017-12-05T08:49:09.522Z,5.35
2017-12-05T08:50:12.014Z,4.35
2017-12-05T08:51:14.843Z,6.95
2017-12-05T08:52:17.675Z,8.45
2017-12-05T08:53:20.168Z,6.07
2017-12-05T08:54:23.395Z,6.43
2017-12-05T08:55:25.890Z,8.23
2017-12-05T08:56:28.474Z,9.60
2017-12-05T08:57:30.983Z,11.00
2017-12-05T08:58:33.430Z,6.55
2017-12-05T08:59:35.954Z,5.10
2017-12-05T09:00:39.198Z,5.78
2017-12-05T09:01:41.687Z,5.62
2017-12-05T09:02:44.184Z,4.35
2017-12-05T09:03:46.875Z,4.55
2017-12-05T09:04:49.407Z,5.22
2017-12-05T09:05:51.938Z,3.40
2017-12-05T09:06:54.428Z,3.37
2017-12-05T09:07:57.658Z,4.95
2017-12-05T09:09:00.124Z,3.03
2017-12-05T09:10:02.613Z,3.65
2017-12-05T09:11:05.109Z,2.78
2017-12-05T09:12:07.599Z,3.75
2017-12-05T09:13:10.050Z,2.58
2017-12-05T09:14:12.598Z,4.05
2017-12-05T09:15:15.093Z,3.65
2017-12-05T09:16:17.604Z,3.35
2017-12-05T09:17:20.098Z,2.70
2017-12-05T09:18:22.550Z,3.03
2017-12-05T09:19:25.066Z,5.80
2017-12-05T09:20:27.519Z,3.42
2017-12-05T09:21:30.364Z,3.25
2017-12-05T09:22:32.886Z,8.68
2017-12-05T09:23:35.398Z,5.10
2017-12-05T09:24:38.365Z,5.68
2017-12-05T09:25:40.887Z,3.22
2017-12-05T09:26:43.331Z,3.95
2017-12-05T09:27:45.790Z,9.32
2017-12-05T09:28:49.015Z,4.28
2017-12-05T09:29:52.258Z,7.32
2017-12-05T09:30:55.557Z,4.87
2017-12-05T09:31:58.165Z,6.18
2017-12-05T09:33:00.630Z,6.70
2017-12-05T09:34:03.119Z,4.10
2017-12-05T09:35:05.582Z,5.10
2017-12-05T09:36:08.072Z,5.10
2017-12-05T09:37:10.637Z,4.32
2017-12-05T09:38:13.107Z,3.90
2017-12-05T09:39:15.569Z,2.85
2017-12-05T09:40:18.035Z,4.97
2017-12-05T09:41:22.385Z,3.90
2017-12-05T09:42:24.872Z,5.60
2017-12-05T09:43:27.347Z,4.15
2017-12-05T09:44:30.578Z,2.60
2017-12-05T09:45:33.832Z,3.30
2017-12-05T09:46:37.070Z,2.70
2017-12-05T09:47:40.308Z,3.28
2017-12-05T09:48:43.009Z,2.85
2017-12-05T09:49:46.227Z,3.47
2017-12-05T09:50:48.727Z,4.25
2017-12-05T09:51:51.213Z,3.10
2017-12-05T09:52:53.790Z,7.43
2017-12-05T09:53:56.286Z,3.60
2017-12-05T09:54:59.515Z,4.80
2017-12-05T09:56:01.988Z,4.78
2017-12-05T09:57:04.458Z,8.50
2017-12-05T09:58:07.014Z,9.15
2017-12-05T09:59:11.905Z,4.60
2017-12-05T10:00:15.213Z,7.28
2017-12-05T10:01:17.670Z,9.07
2017-12-05T10:02:20.914Z,3.85
2017-12-05T10:03:23.759Z,5.22
2017-12-05T10:04:26.506Z,6.28
2017-12-05T10:05:29.254Z,4.22
2017-12-05T10:06:32.619Z,6.70
2017-12-05T10:07:36.862Z,3.55
2017-12-05T10:08:39.669Z,5.78
2017-12-05T10:09:42.339Z,8.23
2017-12-05T10:10:44.882Z,2.95
2017-12-05T10:11:48.115Z,6.55
2017-12-05T10:12:50.594Z,7.40
2017-12-05T10:13:53.088Z,6.50
2017-12-05T10:14:59.201Z,7.18
2017-12-05T10:16:01.719Z,11.77
2017-12-05T10:17:04.282Z,10.32
2017-12-05T10:18:06.870Z,4.57
2017-12-05T10:19:09.374Z,14.98
2017-12-05T10:20:12.098Z,6.75
2017-12-05T10:21:14.596Z,8.30
2017-12-05T10:22:17.200Z,9.05
2017-12-05T10:23:19.674Z,7.20
2017-12-05T10:24:22.134Z,9.15
2017-12-05T10:25:25.350Z,7.78
2017-12-05T10:26:27.828Z,8.13
2017-12-05T10:27:30.286Z,8.38
2017-12-05T10:28:32.748Z,10.00
2017-12-05T10:29:35.272Z,8.90
2017-12-05T10:30:38.525Z,7.87
2017-12-05T10:31:41.022Z,7.93
2017-12-05T10:32:43.537Z,10.70
2017-12-05T10:33:46.005Z,6.87
2017-12-05T10:34:48.469Z,5.28
2017-12-05T10:35:50.951Z,5.85
2017-12-05T10:36:53.401Z,9.70
2017-12-05T10:37:55.887Z,8.52
2017-12-05T10:38:59.251Z,11.40
2017-12-05T10:40:01.730Z,7.40
2017-12-05T10:41:04.246Z,7.18
2017-12-05T10:42:07.025Z,7.18
2017-12-05T10:43:09.564Z,9.23
2017-12-05T10:44:12.088Z,9.93
2017-12-05T10:45:15.316Z,11.55
2017-12-05T10:46:18.601Z,6.97
2017-12-05T10:47:21.074Z,9.13
2017-12-05T10:48:24.317Z,10.43
2017-12-05T10:49:27.585Z,10.57
2017-12-05T10:50:30.058Z,10.00
2017-12-05T10:51:32.624Z,12.37
2017-12-05T10:52:35.095Z,10.35
2017-12-05T10:53:37.632Z,10.18
2017-12-05T10:54:41.649Z,9.35
2017-12-05T10:55:44.128Z,12.88
2017-12-05T10:56:46.994Z,7.85
2017-12-05T10:57:50.226Z,9.65
2017-12-05T10:58:53.483Z,7.37
2017-12-05T10:59:56.012Z,9.00
2017-12-05T11:00:58.476Z,7.70
2017-12-05T11:02:01.087Z,9.35
2017-12-05T11:03:03.551Z,6.55
2017-12-05T11:04:06.014Z,8.25
2017-12-05T11:05:08.502Z,7.90
2017-12-05T11:06:10.974Z,8.93
2017-12-05T11:07:13.470Z,16.92
2017-12-05T11:08:16.857Z,10.77
2017-12-05T11:09:19.350Z,9.25
2017-12-05T11:10:22.576Z,11.70
2017-12-05T11:11:25.814Z,7.40
2017-12-05T11:12:29.063Z,11.05
2017-12-05T11:13:32.323Z,8.88
2017-12-05T11:14:34.910Z,7.00
2017-12-05T11:15:37.381Z,5.60
2017-12-05T11:16:42.340Z,6.80
2017-12-05T11:17:45.570Z,9.63
2017-12-05T11:18:48.647Z,6.87
2017-12-05T11:19:51.162Z,7.37
2017-12-05T11:20:55.420Z,7.00
2017-12-05T11:21:59.034Z,6.03
2017-12-05T11:23:01.520Z,7.20
2017-12-05T11:24:04.765Z,7.37
2017-12-05T11:25:07.373Z,9.15
2017-12-05T11:26:09.882Z,7.20
2017-12-05T11:27:12.335Z,8.90
2017-12-05T11:28:14.881Z,11.05
2017-12-05T11:29:17.337Z,6.62
2017-12-05T11:30:21.314Z,7.62
2017-12-05T11:31:24.600Z,7.37
2017-12-05T11:32:29.366Z,4.78
2017-12-05T11:33:31.838Z,5.05
2017-12-05T11:34:34.309Z,6.00
2017-12-05T11:35:36.880Z,7.43
2017-12-05T11:36:39.327Z,4.97
2017-12-05T11:37:41.805Z,7.90
2017-12-05T11:38:44.295Z,8.57
2017-12-05T11:39:47.558Z,6.65
2017-12-05T11:40:50.098Z,8.98
2017-12-05T11:41:53.050Z,9.70
2017-12-05T11:42:55.574Z,7.18
2017-12-05T11:43:58.144Z,8.10
2017-12-05T11:45:01.370Z,6.07
2017-12-05T11:46:03.840Z,4.47
2017-12-05T11:47:06.317Z,6.65
2017-12-05T11:48:08.783Z,4.47
2017-12-05T11:49:11.344Z,7.43
2017-12-05T11:50:13.831Z,6.10
2017-12-05T11:51:16.349Z,5.00
2017-12-05T11:52:19.578Z,4.10
2017-12-05T11:53:22.816Z,4.65
2017-12-05T11:54:26.100Z,7.35
2017-12-05T11:55:28.615Z,6.05
2017-12-05T11:56:31.087Z,8.38
2017-12-05T11:57:33.571Z,3.87
2017-12-05T11:58:36.087Z,5.62
2017-12-05T11:59:38.576Z,7.87
2017-12-05T12:00:41.092Z,4.00
2017-12-05T12:01:44.822Z,3.90
2017-12-05T12:02:47.298Z,5.10
2017-12-05T12:03:50.559Z,7.00
2017-12-05T12:04:53.037Z,5.25
2017-12-05T12:05:55.567Z,4.25
2017-12-05T12:06:58.065Z,5.82
2017-12-05T12:08:00.578Z,4.60
2017-12-05T12:09:03.073Z,4.50
2017-12-05T12:10:06.305Z,5.28
2017-12-05T12:11:08.766Z,6.45
2017-12-05T12:12:11.231Z,5.47
2017-12-05T12:13:13.793Z,3.95
2017-12-05T12:14:17.015Z,3.35
2017-12-05T12:15:20.238Z,3.10
2017-12-05T12:16:22.715Z,3.58
2017-12-05T12:17:25.247Z,4.60
2017-12-05T12:18:27.890Z,5.78
2017-12-05T12:19:30.358Z,4.07
2017-12-05T12:20:32.922Z,4.78
2017-12-05T12:21:35.390Z,4.85
2017-12-05T12:22:37.874Z,6.62
2017-12-05T12:23:40.416Z,5.05
2017-12-05T12:24:42.892Z,2.95
2017-12-05T12:25:46.134Z,4.87
2017-12-05T12:26:49.516Z,4.85
2017-12-05T12:27:52.032Z,7.35
2017-12-05T12:28:54.499Z,5.50
2017-12-05T12:29:56.984Z,6.07
2017-12-05T12:31:00.247Z,5.53
2017-12-05T12:32:02.735Z,6.72
2017-12-05T12:33:05.975Z,6.45
2017-12-05T12:34:08.543Z,7.78
2017-12-05T12:35:10.998Z,7.97
2017-12-05T12:36:13.475Z,7.37
2017-12-05T12:37:16.013Z,5.85
2017-12-05T12:38:18.472Z,10.35
2017-12-05T12:39:20.985Z,5.12
2017-12-05T12:40:23.474Z,4.32
2017-12-05T12:41:25.957Z,5.95
2017-12-05T12:42:28.415Z,7.07
2017-12-05T12:43:30.987Z,4.80
2017-12-05T12:44:33.444Z,7.85
2017-12-05T12:45:36.738Z,5.47
2017-12-05T12:46:39.233Z,6.28
2017-12-05T12:47:41.711Z,7.85
2017-12-05T12:48:44.179Z,12.50
2017-12-05T12:49:47.838Z,6.70
2017-12-05T12:50:50.556Z,7.32
2017-12-05T12:51:53.876Z,6.62
2017-12-05T12:52:57.062Z,8.82
2017-12-05T12:53:59.558Z,7.90
2017-12-05T12:55:02.008Z,10.40
2017-12-05T12:56:04.531Z,9.60
2017-12-05T12:57:07.021Z,14.13
2017-12-05T12:58:09.474Z,6.32
2017-12-05T12:59:11.934Z,13.13
2017-12-05T13:00:14.479Z,7.07
2017-12-05T13:01:16.945Z,9.15
2017-12-05T13:02:20.195Z,7.35
2017-12-05T13:03:22.667Z,9.43
2017-12-05T13:04:25.122Z,13.13
2017-12-05T13:05:28.358Z,7.00
2017-12-05T13:06:30.864Z,12.95
2017-12-05T13:07:33.339Z,6.53
2017-12-05T13:08:35.854Z,8.63
2017-12-05T13:09:39.101Z,10.55
2017-12-05T13:10:42.422Z,8.48
2017-12-05T13:11:44.938Z,9.50
2017-12-05T13:12:47.422Z,9.90
2017-12-05T13:13:49.891Z,9.48
2017-12-05T13:14:52.394Z,18.35
2017-12-05T13:15:55.009Z,8.90
2017-12-05T13:16:57.503Z,10.18
2017-12-05T13:17:59.982Z,9.68
2017-12-05T13:19:02.454Z,10.63
2017-12-05T13:20:04.922Z,9.15
2017-12-05T13:21:07.514Z,9.82
2017-12-05T13:22:10.836Z,9.35
2017-12-05T13:23:14.090Z,9.70
2017-12-05T13:24:16.608Z,10.00
2017-12-05T13:25:20.227Z,10.40
2017-12-05T13:26:22.699Z,13.85
2017-12-05T13:27:25.191Z,9.80
2017-12-05T13:28:28.425Z,12.77
2017-12-05T13:29:30.887Z,9.70
2017-12-05T13:30:33.347Z,10.48
2017-12-05T13:31:35.854Z,10.80
2017-12-05T13:32:38.583Z,9.98
2017-12-05T13:33:41.057Z,9.20
2017-12-05T13:34:47.890Z,10.00
2017-12-05T13:35:52.086Z,13.25
2017-12-05T13:36:55.825Z,11.50
2017-12-05T13:37:58.476Z,11.38
2017-12-05T13:39:01.017Z,12.88